sensor_id;sensor_type;location;lat;lon;timestamp;P1;durP1;ratioP1;P2;durP2;ratioP2
54125;SDS011;40360;52.992;6.796;2023-06-04T00:00:43;6.82;;;3.05;;
54125;SDS011;40360;52.992;6.796;2023-06-04T00:03:09;7.95;;;4.10;;
54125;SDS011;40360;52.992;6.796;2023-06-04T00:05:35;10.60;;;4.57;;
54125;SDS011;40360;52.992;6.796;2023-06-04T00:08:00;8.90;;;3.88;;
54125;SDS011;40360;52.992;6.796;2023-06-04T00:10:26;10.40;;;4.28;;
54125;SDS011;40360;52.992;6.796;2023-06-04T00:12:52;7.75;;;4.18;;
54125;SDS011;40360;52.992;6.796;2023-06-04T00:15:17;8.25;;;4.53;;
54125;SDS011;40360;52.992;6.796;2023-06-04T00:17:43;8.52;;;4.70;;
54125;SDS011;40360;52.992;6.796;2023-06-04T00:20:09;10.52;;;4.65;;
54125;SDS011;40360;52.992;6.796;2023-06-04T00:22:35;9.18;;;4.60;;
54125;SDS011;40360;52.992;6.796;2023-06-04T00:25:01;11.00;;;4.72;;
54125;SDS011;40360;52.992;6.796;2023-06-04T00:27:28;14.48;;;4.95;;
54125;SDS011;40360;52.992;6.796;2023-06-04T00:29:53;6.93;;;4.72;;
54125;SDS011;40360;52.992;6.796;2023-06-04T00:32:20;14.35;;;5.45;;
54125;SDS011;40360;52.992;6.796;2023-06-04T00:34:52;11.93;;;4.80;;
54125;SDS011;40360;52.992;6.796;2023-06-04T00:37:20;8.80;;;4.72;;
54125;SDS011;40360;52.992;6.796;2023-06-04T00:39:49;14.85;;;5.75;;
54125;SDS011;40360;52.992;6.796;2023-06-04T00:42:15;12.90;;;5.93;;
54125;SDS011;40360;52.992;6.796;2023-06-04T00:44:41;8.38;;;5.20;;
54125;SDS011;40360;52.992;6.796;2023-06-04T00:47:12;12.05;;;5.47;;
54125;SDS011;40360;52.992;6.796;2023-06-04T00:49:41;12.13;;;6.30;;
54125;SDS011;40360;52.992;6.796;2023-06-04T00:52:10;9.23;;;5.55;;
54125;SDS011;40360;52.992;6.796;2023-06-04T00:54:38;15.30;;;6.00;;
54125;SDS011;40360;52.992;6.796;2023-06-04T00:57:05;19.85;;;6.90;;
54125;SDS011;40360;52.992;6.796;2023-06-04T00:59:32;14.00;;;6.35;;
54125;SDS011;40360;52.992;6.796;2023-06-04T01:04:53;11.32;;;6.20;;
54125;SDS011;40360;52.992;6.796;2023-06-04T01:07:41;11.35;;;6.50;;
54125;SDS011;40360;52.992;6.796;2023-06-04T01:10:11;13.38;;;6.80;;
54125;SDS011;40360;52.992;6.796;2023-06-04T01:12:41;12.98;;;6.75;;
54125;SDS011;40360;52.992;6.796;2023-06-04T01:15:08;11.60;;;5.43;;
54125;SDS011;40360;52.992;6.796;2023-06-04T01:17:41;9.90;;;6.15;;
54125;SDS011;40360;52.992;6.796;2023-06-04T01:25:24;10.63;;;5.82;;
54125;SDS011;40360;52.992;6.796;2023-06-04T01:27:56;9.68;;;5.65;;
54125;SDS011;40360;52.992;6.796;2023-06-04T01:30:23;12.75;;;6.35;;
54125;SDS011;40360;52.992;6.796;2023-06-04T01:32:49;10.20;;;6.07;;
54125;SDS011;40360;52.992;6.796;2023-06-04T01:35:15;11.38;;;6.07;;
54125;SDS011;40360;52.992;6.796;2023-06-04T01:37:41;12.45;;;7.05;;
54125;SDS011;40360;52.992;6.796;2023-06-04T01:40:06;11.68;;;6.35;;
54125;SDS011;40360;52.992;6.796;2023-06-04T01:42:36;10.20;;;5.75;;
54125;SDS011;40360;52.992;6.796;2023-06-04T01:45:02;15.02;;;7.43;;
54125;SDS011;40360;52.992;6.796;2023-06-04T01:47:28;13.88;;;6.72;;
54125;SDS011;40360;52.992;6.796;2023-06-04T01:49:53;14.55;;;6.75;;
54125;SDS011;40360;52.992;6.796;2023-06-04T01:52:19;14.32;;;6.32;;
54125;SDS011;40360;52.992;6.796;2023-06-04T01:54:46;17.48;;;7.40;;
54125;SDS011;40360;52.992;6.796;2023-06-04T01:57:13;14.13;;;7.25;;
54125;SDS011;40360;52.992;6.796;2023-06-04T01:59:39;15.75;;;7.65;;
54125;SDS011;40360;52.992;6.796;2023-06-04T02:02:07;16.10;;;8.27;;
54125;SDS011;40360;52.992;6.796;2023-06-04T02:04:32;14.82;;;7.53;;
54125;SDS011;40360;52.992;6.796;2023-06-04T02:07:01;12.10;;;7.30;;
54125;SDS011;40360;52.992;6.796;2023-06-04T02:09:27;14.45;;;7.25;;
54125;SDS011;40360;52.992;6.796;2023-06-04T02:11:53;16.50;;;7.50;;
54125;SDS011;40360;52.992;6.796;2023-06-04T02:14:18;15.30;;;7.90;;
54125;SDS011;40360;52.992;6.796;2023-06-04T02:16:44;16.88;;;7.45;;
54125;SDS011;40360;52.992;6.796;2023-06-04T02:19:14;13.80;;;7.47;;
54125;SDS011;40360;52.992;6.796;2023-06-04T02:21:40;11.48;;;6.65;;
54125;SDS011;40360;52.992;6.796;2023-06-04T02:24:05;12.88;;;7.47;;
54125;SDS011;40360;52.992;6.796;2023-06-04T02:26:31;9.50;;;6.63;;
54125;SDS011;40360;52.992;6.796;2023-06-04T02:28:57;18.35;;;7.18;;
54125;SDS011;40360;52.992;6.796;2023-06-04T02:31:23;19.13;;;8.15;;
54125;SDS011;40360;52.992;6.796;2023-06-04T02:33:48;18.48;;;8.50;;
54125;SDS011;40360;52.992;6.796;2023-06-04T02:36:14;9.20;;;6.35;;
54125;SDS011;40360;52.992;6.796;2023-06-04T02:38:42;17.40;;;7.70;;
54125;SDS011;40360;52.992;6.796;2023-06-04T02:41:08;15.60;;;6.90;;
54125;SDS011;40360;52.992;6.796;2023-06-04T02:43:33;17.13;;;7.78;;
54125;SDS011;40360;52.992;6.796;2023-06-04T02:45:59;16.83;;;7.78;;
54125;SDS011;40360;52.992;6.796;2023-06-04T02:48:25;13.10;;;6.57;;
54125;SDS011;40360;52.992;6.796;2023-06-04T02:50:50;13.75;;;6.80;;
54125;SDS011;40360;52.992;6.796;2023-06-04T02:53:16;16.80;;;8.57;;
54125;SDS011;40360;52.992;6.796;2023-06-04T02:55:41;16.73;;;7.50;;
54125;SDS011;40360;52.992;6.796;2023-06-04T02:58:07;16.17;;;7.25;;
54125;SDS011;40360;52.992;6.796;2023-06-04T03:00:34;16.27;;;8.38;;
54125;SDS011;40360;52.992;6.796;2023-06-04T03:03:00;13.57;;;7.75;;
54125;SDS011;40360;52.992;6.796;2023-06-04T03:05:28;17.42;;;7.38;;
54125;SDS011;40360;52.992;6.796;2023-06-04T03:07:56;11.02;;;7.05;;
54125;SDS011;40360;52.992;6.796;2023-06-04T03:10:23;17.42;;;8.75;;
54125;SDS011;40360;52.992;6.796;2023-06-04T03:12:49;14.75;;;7.63;;
54125;SDS011;40360;52.992;6.796;2023-06-04T03:15:14;17.00;;;8.73;;
54125;SDS011;40360;52.992;6.796;2023-06-04T03:17:40;11.82;;;7.00;;
54125;SDS011;40360;52.992;6.796;2023-06-04T03:20:06;13.70;;;8.35;;
54125;SDS011;40360;52.992;6.796;2023-06-04T03:22:35;12.63;;;7.88;;
54125;SDS011;40360;52.992;6.796;2023-06-04T03:25:01;20.10;;;8.35;;
54125;SDS011;40360;52.992;6.796;2023-06-04T03:27:28;19.88;;;9.10;;
54125;SDS011;40360;52.992;6.796;2023-06-04T03:29:55;21.63;;;7.07;;
54125;SDS011;40360;52.992;6.796;2023-06-04T03:32:21;18.88;;;8.45;;
54125;SDS011;40360;52.992;6.796;2023-06-04T03:34:46;15.95;;;6.82;;
54125;SDS011;40360;52.992;6.796;2023-06-04T03:37:12;22.55;;;8.27;;
54125;SDS011;40360;52.992;6.796;2023-06-04T03:39:38;13.98;;;7.50;;
54125;SDS011;40360;52.992;6.796;2023-06-04T03:42:03;15.82;;;7.13;;
54125;SDS011;40360;52.992;6.796;2023-06-04T03:44:30;16.40;;;7.05;;
54125;SDS011;40360;52.992;6.796;2023-06-04T03:46:58;16.67;;;8.18;;
54125;SDS011;40360;52.992;6.796;2023-06-04T03:49:24;16.08;;;8.60;;
54125;SDS011;40360;52.992;6.796;2023-06-04T03:51:50;17.45;;;8.60;;
54125;SDS011;40360;52.992;6.796;2023-06-04T03:54:16;12.90;;;8.65;;
54125;SDS011;40360;52.992;6.796;2023-06-04T03:56:42;15.13;;;7.68;;
54125;SDS011;40360;52.992;6.796;2023-06-04T03:59:09;13.45;;;9.02;;
54125;SDS011;40360;52.992;6.796;2023-06-04T04:01:34;13.85;;;8.77;;
54125;SDS011;40360;52.992;6.796;2023-06-04T04:04:00;15.25;;;8.60;;
54125;SDS011;40360;52.992;6.796;2023-06-04T04:06:26;17.92;;;8.75;;
54125;SDS011;40360;52.992;6.796;2023-06-04T04:08:51;17.45;;;8.70;;
54125;SDS011;40360;52.992;6.796;2023-06-04T04:11:18;18.98;;;9.07;;
54125;SDS011;40360;52.992;6.796;2023-06-04T04:13:44;12.52;;;8.55;;
54125;SDS011;40360;52.992;6.796;2023-06-04T04:16:11;17.52;;;9.02;;
54125;SDS011;40360;52.992;6.796;2023-06-04T04:18:37;19.38;;;9.05;;
54125;SDS011;40360;52.992;6.796;2023-06-04T04:21:03;18.70;;;10.15;;
54125;SDS011;40360;52.992;6.796;2023-06-04T04:23:29;20.33;;;8.60;;
54125;SDS011;40360;52.992;6.796;2023-06-04T04:25:57;14.65;;;8.43;;
54125;SDS011;40360;52.992;6.796;2023-06-04T04:28:27;16.75;;;9.23;;
54125;SDS011;40360;52.992;6.796;2023-06-04T04:30:54;15.07;;;8.80;;
54125;SDS011;40360;52.992;6.796;2023-06-04T04:33:21;16.48;;;9.57;;
54125;SDS011;40360;52.992;6.796;2023-06-04T04:35:49;14.45;;;8.25;;
54125;SDS011;40360;52.992;6.796;2023-06-04T04:38:16;16.17;;;9.45;;
54125;SDS011;40360;52.992;6.796;2023-06-04T04:40:44;16.17;;;8.80;;
54125;SDS011;40360;52.992;6.796;2023-06-04T04:43:12;13.80;;;8.07;;
54125;SDS011;40360;52.992;6.796;2023-06-04T04:45:38;13.13;;;7.93;;
54125;SDS011;40360;52.992;6.796;2023-06-04T04:48:04;13.32;;;7.53;;
54125;SDS011;40360;52.992;6.796;2023-06-04T04:50:30;14.98;;;7.70;;
54125;SDS011;40360;52.992;6.796;2023-06-04T04:52:57;15.20;;;8.15;;
54125;SDS011;40360;52.992;6.796;2023-06-04T04:55:23;14.18;;;8.02;;
54125;SDS011;40360;52.992;6.796;2023-06-04T04:57:49;19.55;;;9.85;;
54125;SDS011;40360;52.992;6.796;2023-06-04T05:00:15;12.35;;;7.75;;
54125;SDS011;40360;52.992;6.796;2023-06-04T05:02:41;13.48;;;8.50;;
54125;SDS011;40360;52.992;6.796;2023-06-04T05:05:07;14.65;;;8.30;;
54125;SDS011;40360;52.992;6.796;2023-06-04T05:07:32;15.95;;;8.13;;
54125;SDS011;40360;52.992;6.796;2023-06-04T05:09:58;16.58;;;9.07;;
54125;SDS011;40360;52.992;6.796;2023-06-04T05:12:29;15.68;;;9.63;;
54125;SDS011;40360;52.992;6.796;2023-06-04T05:14:56;19.95;;;9.10;;
54125;SDS011;40360;52.992;6.796;2023-06-04T05:17:22;16.20;;;9.07;;
54125;SDS011;40360;52.992;6.796;2023-06-04T05:19:55;22.95;;;10.80;;
54125;SDS011;40360;52.992;6.796;2023-06-04T05:22:30;16.48;;;9.50;;
54125;SDS011;40360;52.992;6.796;2023-06-04T05:24:57;18.17;;;9.40;;
54125;SDS011;40360;52.992;6.796;2023-06-04T05:27:24;16.98;;;10.13;;
54125;SDS011;40360;52.992;6.796;2023-06-04T05:29:50;17.38;;;10.95;;
54125;SDS011;40360;52.992;6.796;2023-06-04T05:32:16;19.38;;;11.43;;
54125;SDS011;40360;52.992;6.796;2023-06-04T05:34:42;19.58;;;10.55;;
54125;SDS011;40360;52.992;6.796;2023-06-04T05:37:08;17.70;;;10.60;;
54125;SDS011;40360;52.992;6.796;2023-06-04T05:39:34;17.08;;;9.15;;
54125;SDS011;40360;52.992;6.796;2023-06-04T05:42:00;13.05;;;9.65;;
54125;SDS011;40360;52.992;6.796;2023-06-04T06:01:29;17.67;;;8.38;;
54125;SDS011;40360;52.992;6.796;2023-06-04T06:03:55;17.90;;;6.88;;
54125;SDS011;40360;52.992;6.796;2023-06-04T06:06:20;16.08;;;7.38;;
54125;SDS011;40360;52.992;6.796;2023-06-04T06:08:49;12.55;;;7.07;;
54125;SDS011;40360;52.992;6.796;2023-06-04T06:11:15;15.60;;;8.35;;
54125;SDS011;40360;52.992;6.796;2023-06-04T06:13:41;18.58;;;8.57;;
54125;SDS011;40360;52.992;6.796;2023-06-04T06:16:06;14.52;;;9.40;;
54125;SDS011;40360;52.992;6.796;2023-06-04T06:18:32;21.65;;;9.77;;
54125;SDS011;40360;52.992;6.796;2023-06-04T06:20:58;19.95;;;10.00;;
54125;SDS011;40360;52.992;6.796;2023-06-04T06:23:23;16.95;;;9.35;;
54125;SDS011;40360;52.992;6.796;2023-06-04T06:25:49;14.15;;;8.80;;
54125;SDS011;40360;52.992;6.796;2023-06-04T06:28:17;14.85;;;8.98;;
54125;SDS011;40360;52.992;6.796;2023-06-04T06:30:43;17.20;;;9.55;;
54125;SDS011;40360;52.992;6.796;2023-06-04T06:33:09;15.02;;;9.32;;
54125;SDS011;40360;52.992;6.796;2023-06-04T06:35:35;17.50;;;8.07;;
54125;SDS011;40360;52.992;6.796;2023-06-04T06:38:01;17.63;;;8.90;;
54125;SDS011;40360;52.992;6.796;2023-06-04T06:40:26;12.60;;;7.88;;
54125;SDS011;40360;52.992;6.796;2023-06-04T06:42:52;12.95;;;7.40;;
54125;SDS011;40360;52.992;6.796;2023-06-04T06:45:18;14.75;;;8.70;;
54125;SDS011;40360;52.992;6.796;2023-06-04T06:47:44;15.68;;;8.40;;
54125;SDS011;40360;52.992;6.796;2023-06-04T06:50:10;17.33;;;8.73;;
54125;SDS011;40360;52.992;6.796;2023-06-04T06:52:36;17.38;;;7.63;;
54125;SDS011;40360;52.992;6.796;2023-06-04T06:55:03;14.10;;;6.82;;
54125;SDS011;40360;52.992;6.796;2023-06-04T06:57:30;14.38;;;6.80;;
54125;SDS011;40360;52.992;6.796;2023-06-04T06:59:56;13.50;;;7.45;;
54125;SDS011;40360;52.992;6.796;2023-06-04T07:02:21;16.58;;;6.60;;
54125;SDS011;40360;52.992;6.796;2023-06-04T07:04:47;13.02;;;6.25;;
54125;SDS011;40360;52.992;6.796;2023-06-04T07:07:13;8.93;;;4.55;;
54125;SDS011;40360;52.992;6.796;2023-06-04T07:09:39;10.73;;;4.60;;
54125;SDS011;40360;52.992;6.796;2023-06-04T07:12:05;12.32;;;4.53;;
54125;SDS011;40360;52.992;6.796;2023-06-04T07:14:31;11.63;;;4.55;;
54125;SDS011;40360;52.992;6.796;2023-06-04T07:16:57;7.25;;;4.32;;
54125;SDS011;40360;52.992;6.796;2023-06-04T07:19:22;12.02;;;4.18;;
54125;SDS011;40360;52.992;6.796;2023-06-04T07:21:48;6.80;;;3.60;;
54125;SDS011;40360;52.992;6.796;2023-06-04T07:24:14;8.65;;;3.85;;
54125;SDS011;40360;52.992;6.796;2023-06-04T07:26:40;7.50;;;3.47;;
54125;SDS011;40360;52.992;6.796;2023-06-04T07:29:06;5.43;;;3.13;;
54125;SDS011;40360;52.992;6.796;2023-06-04T07:31:32;9.63;;;4.05;;
54125;SDS011;40360;52.992;6.796;2023-06-04T07:33:57;8.70;;;3.33;;
54125;SDS011;40360;52.992;6.796;2023-06-04T07:36:23;8.80;;;3.45;;
54125;SDS011;40360;52.992;6.796;2023-06-04T07:38:48;11.20;;;3.70;;
54125;SDS011;40360;52.992;6.796;2023-06-04T07:41:14;8.93;;;3.17;;
54125;SDS011;40360;52.992;6.796;2023-06-04T07:43:40;7.28;;;3.63;;
54125;SDS011;40360;52.992;6.796;2023-06-04T07:46:07;9.82;;;3.63;;
54125;SDS011;40360;52.992;6.796;2023-06-04T07:48:34;8.95;;;3.30;;
54125;SDS011;40360;52.992;6.796;2023-06-04T07:51:00;8.77;;;3.35;;
54125;SDS011;40360;52.992;6.796;2023-06-04T07:53:27;9.23;;;2.78;;
54125;SDS011;40360;52.992;6.796;2023-06-04T07:55:53;7.78;;;3.60;;
54125;SDS011;40360;52.992;6.796;2023-06-04T07:58:20;11.82;;;3.38;;
54125;SDS011;40360;52.992;6.796;2023-06-04T08:00:45;7.97;;;2.90;;
54125;SDS011;40360;52.992;6.796;2023-06-04T08:03:11;9.68;;;3.22;;
54125;SDS011;40360;52.992;6.796;2023-06-04T08:05:37;10.13;;;3.40;;
54125;SDS011;40360;52.992;6.796;2023-06-04T08:08:03;9.25;;;2.63;;
54125;SDS011;40360;52.992;6.796;2023-06-04T08:10:29;9.40;;;3.35;;
54125;SDS011;40360;52.992;6.796;2023-06-04T08:12:55;10.45;;;2.80;;
54125;SDS011;40360;52.992;6.796;2023-06-04T08:15:21;5.82;;;2.38;;
54125;SDS011;40360;52.992;6.796;2023-06-04T08:17:47;7.15;;;2.60;;
54125;SDS011;40360;52.992;6.796;2023-06-04T08:20:12;6.32;;;2.40;;
54125;SDS011;40360;52.992;6.796;2023-06-04T08:22:38;7.70;;;2.17;;
54125;SDS011;40360;52.992;6.796;2023-06-04T08:25:06;7.80;;;2.63;;
54125;SDS011;40360;52.992;6.796;2023-06-04T08:27:34;7.40;;;2.67;;
54125;SDS011;40360;52.992;6.796;2023-06-04T08:30:00;6.45;;;1.98;;
54125;SDS011;40360;52.992;6.796;2023-06-04T08:32:27;4.18;;;2.20;;
54125;SDS011;40360;52.992;6.796;2023-06-04T08:34:52;7.38;;;2.80;;
54125;SDS011;40360;52.992;6.796;2023-06-04T08:37:19;6.22;;;2.40;;
54125;SDS011;40360;52.992;6.796;2023-06-04T08:39:44;8.35;;;3.42;;
54125;SDS011;40360;52.992;6.796;2023-06-04T08:42:14;8.07;;;2.33;;
54125;SDS011;40360;52.992;6.796;2023-06-04T08:44:49;6.38;;;2.25;;
54125;SDS011;40360;52.992;6.796;2023-06-04T08:47:19;6.30;;;2.38;;
54125;SDS011;40360;52.992;6.796;2023-06-04T08:49:45;5.18;;;2.10;;
54125;SDS011;40360;52.992;6.796;2023-06-04T08:52:16;4.18;;;1.90;;
54125;SDS011;40360;52.992;6.796;2023-06-04T08:54:42;4.88;;;1.63;;
54125;SDS011;40360;52.992;6.796;2023-06-04T08:57:08;4.10;;;1.60;;
54125;SDS011;40360;52.992;6.796;2023-06-04T08:59:35;7.32;;;2.38;;
54125;SDS011;40360;52.992;6.796;2023-06-04T09:02:02;7.93;;;2.42;;
54125;SDS011;40360;52.992;6.796;2023-06-04T09:04:29;5.25;;;2.03;;
54125;SDS011;40360;52.992;6.796;2023-06-04T09:06:55;4.50;;;1.92;;
54125;SDS011;40360;52.992;6.796;2023-06-04T09:09:29;5.38;;;1.55;;
54125;SDS011;40360;52.992;6.796;2023-06-04T09:11:56;4.97;;;1.73;;
54125;SDS011;40360;52.992;6.796;2023-06-04T09:14:22;3.28;;;1.70;;
54125;SDS011;40360;52.992;6.796;2023-06-04T09:19:15;5.10;;;1.83;;
54125;SDS011;40360;52.992;6.796;2023-06-04T09:24:14;3.47;;;1.77;;
54125;SDS011;40360;52.992;6.796;2023-06-04T09:26:40;6.28;;;1.90;;
54125;SDS011;40360;52.992;6.796;2023-06-04T09:29:05;3.60;;;1.50;;
54125;SDS011;40360;52.992;6.796;2023-06-04T09:31:31;3.70;;;1.67;;
54125;SDS011;40360;52.992;6.796;2023-06-04T09:34:02;5.00;;;2.17;;
54125;SDS011;40360;52.992;6.796;2023-06-04T09:36:35;4.32;;;1.83;;
54125;SDS011;40360;52.992;6.796;2023-06-04T09:39:02;4.43;;;1.85;;
54125;SDS011;40360;52.992;6.796;2023-06-04T09:41:28;2.80;;;1.63;;
54125;SDS011;40360;52.992;6.796;2023-06-04T09:44:01;5.35;;;2.22;;
54125;SDS011;40360;52.992;6.796;2023-06-04T09:46:30;4.25;;;1.60;;
54125;SDS011;40360;52.992;6.796;2023-06-04T09:49:03;2.42;;;1.65;;
54125;SDS011;40360;52.992;6.796;2023-06-04T09:51:30;4.13;;;1.60;;
54125;SDS011;40360;52.992;6.796;2023-06-04T09:53:57;4.38;;;2.08;;
54125;SDS011;40360;52.992;6.796;2023-06-04T09:56:24;4.65;;;1.73;;
54125;SDS011;40360;52.992;6.796;2023-06-04T09:58:55;6.97;;;2.33;;
54125;SDS011;40360;52.992;6.796;2023-06-04T10:01:28;4.75;;;1.52;;
54125;SDS011;40360;52.992;6.796;2023-06-04T10:03:55;5.35;;;1.95;;
54125;SDS011;40360;52.992;6.796;2023-06-04T10:06:23;4.45;;;2.30;;
54125;SDS011;40360;52.992;6.796;2023-06-04T10:08:51;6.45;;;2.08;;
54125;SDS011;40360;52.992;6.796;2023-06-04T10:11:25;4.55;;;2.10;;
54125;SDS011;40360;52.992;6.796;2023-06-04T10:14:05;5.85;;;2.22;;
54125;SDS011;40360;52.992;6.796;2023-06-04T10:16:55;4.05;;;1.90;;
54125;SDS011;40360;52.992;6.796;2023-06-04T10:19:23;4.72;;;2.05;;
54125;SDS011;40360;52.992;6.796;2023-06-04T10:21:50;4.40;;;1.80;;
54125;SDS011;40360;52.992;6.796;2023-06-04T10:24:17;3.38;;;1.73;;
54125;SDS011;40360;52.992;6.796;2023-06-04T10:26:45;3.83;;;1.77;;
54125;SDS011;40360;52.992;6.796;2023-06-04T10:29:13;5.80;;;2.05;;
54125;SDS011;40360;52.992;6.796;2023-06-04T10:31:39;3.97;;;2.05;;
54125;SDS011;40360;52.992;6.796;2023-06-04T10:34:06;5.28;;;1.73;;
54125;SDS011;40360;52.992;6.796;2023-06-04T10:36:41;2.60;;;1.52;;
54125;SDS011;40360;52.992;6.796;2023-06-04T10:39:10;2.88;;;1.70;;
54125;SDS011;40360;52.992;6.796;2023-06-04T10:41:37;4.38;;;2.00;;
54125;SDS011;40360;52.992;6.796;2023-06-04T10:44:03;3.80;;;2.47;;
54125;SDS011;40360;52.992;6.796;2023-06-04T10:46:39;2.88;;;1.90;;
54125;SDS011;40360;52.992;6.796;2023-06-04T10:49:05;3.75;;;1.67;;
54125;SDS011;40360;52.992;6.796;2023-06-04T10:51:34;3.00;;;1.55;;
54125;SDS011;40360;52.992;6.796;2023-06-04T10:54:03;7.97;;;2.08;;
54125;SDS011;40360;52.992;6.796;2023-06-04T10:56:30;5.28;;;1.80;;
54125;SDS011;40360;52.992;6.796;2023-06-04T10:58:57;6.45;;;2.72;;
54125;SDS011;40360;52.992;6.796;2023-06-04T11:01:29;4.30;;;1.80;;
54125;SDS011;40360;52.992;6.796;2023-06-04T11:03:59;3.47;;;1.80;;
54125;SDS011;40360;52.992;6.796;2023-06-04T11:06:25;4.28;;;1.65;;
54125;SDS011;40360;52.992;6.796;2023-06-04T11:09:03;3.97;;;1.90;;
54125;SDS011;40360;52.992;6.796;2023-06-04T11:11:33;4.07;;;2.00;;
54125;SDS011;40360;52.992;6.796;2023-06-04T11:14:09;5.20;;;1.52;;
54125;SDS011;40360;52.992;6.796;2023-06-04T11:16:38;4.68;;;1.88;;
54125;SDS011;40360;52.992;6.796;2023-06-04T11:19:04;3.80;;;2.00;;
54125;SDS011;40360;52.992;6.796;2023-06-04T11:21:30;4.13;;;1.52;;
54125;SDS011;40360;52.992;6.796;2023-06-04T11:23:59;7.65;;;2.35;;
54125;SDS011;40360;52.992;6.796;2023-06-04T11:26:31;3.35;;;1.55;;
54125;SDS011;40360;52.992;6.796;2023-06-04T11:28:58;5.45;;;1.60;;
54125;SDS011;40360;52.992;6.796;2023-06-04T11:31:24;4.95;;;1.67;;
54125;SDS011;40360;52.992;6.796;2023-06-04T11:33:50;4.10;;;1.70;;
54125;SDS011;40360;52.992;6.796;2023-06-04T11:36:23;4.43;;;2.05;;
54125;SDS011;40360;52.992;6.796;2023-06-04T11:38:53;3.53;;;2.08;;
54125;SDS011;40360;52.992;6.796;2023-06-04T11:41:20;5.75;;;2.17;;
54125;SDS011;40360;52.992;6.796;2023-06-04T11:43:49;3.78;;;2.55;;
54125;SDS011;40360;52.992;6.796;2023-06-04T11:46:15;15.35;;;3.40;;
54125;SDS011;40360;52.992;6.796;2023-06-04T11:48:41;8.00;;;2.22;;
54125;SDS011;40360;52.992;6.796;2023-06-04T11:51:08;8.98;;;2.42;;
54125;SDS011;40360;52.992;6.796;2023-06-04T11:53:36;13.38;;;2.80;;
54125;SDS011;40360;52.992;6.796;2023-06-04T11:56:03;4.65;;;1.80;;
54125;SDS011;40360;52.992;6.796;2023-06-04T11:58:29;5.20;;;2.05;;
54125;SDS011;40360;52.992;6.796;2023-06-04T12:00:57;9.52;;;2.22;;
54125;SDS011;40360;52.992;6.796;2023-06-04T12:03:33;2.65;;;1.50;;
54125;SDS011;40360;52.992;6.796;2023-06-04T12:08:50;6.15;;;2.10;;
54125;SDS011;40360;52.992;6.796;2023-06-04T12:11:27;5.78;;;2.88;;
54125;SDS011;40360;52.992;6.796;2023-06-04T12:13:54;12.15;;;2.30;;
54125;SDS011;40360;52.992;6.796;2023-06-04T12:16:20;7.13;;;2.35;;
54125;SDS011;40360;52.992;6.796;2023-06-04T12:18:46;4.45;;;2.28;;
54125;SDS011;40360;52.992;6.796;2023-06-04T12:21:17;6.07;;;2.63;;
54125;SDS011;40360;52.992;6.796;2023-06-04T12:23:47;6.70;;;2.40;;
54125;SDS011;40360;52.992;6.796;2023-06-04T12:26:22;4.45;;;2.13;;
54125;SDS011;40360;52.992;6.796;2023-06-04T12:31:39;4.20;;;2.20;;
54125;SDS011;40360;52.992;6.796;2023-06-04T12:34:06;7.45;;;2.17;;
54125;SDS011;40360;52.992;6.796;2023-06-04T12:36:32;3.22;;;1.98;;
54125;SDS011;40360;52.992;6.796;2023-06-04T12:39:01;3.40;;;1.98;;
54125;SDS011;40360;52.992;6.796;2023-06-04T12:41:31;7.85;;;3.72;;
54125;SDS011;40360;52.992;6.796;2023-06-04T12:44:01;5.63;;;2.00;;
54125;SDS011;40360;52.992;6.796;2023-06-04T12:46:27;7.70;;;2.45;;
54125;SDS011;40360;52.992;6.796;2023-06-04T12:48:53;7.35;;;2.33;;
54125;SDS011;40360;52.992;6.796;2023-06-04T12:51:19;3.85;;;1.92;;
54125;SDS011;40360;52.992;6.796;2023-06-04T12:53:45;6.20;;;1.90;;
54125;SDS011;40360;52.992;6.796;2023-06-04T12:56:14;4.32;;;2.08;;
54125;SDS011;40360;52.992;6.796;2023-06-04T12:58:41;3.22;;;1.90;;
54125;SDS011;40360;52.992;6.796;2023-06-04T13:01:06;4.68;;;2.55;;
54125;SDS011;40360;52.992;6.796;2023-06-04T13:03:33;5.18;;;2.10;;
54125;SDS011;40360;52.992;6.796;2023-06-04T13:06:01;5.80;;;2.28;;
54125;SDS011;40360;52.992;6.796;2023-06-04T13:08:27;4.82;;;2.15;;
54125;SDS011;40360;52.992;6.796;2023-06-04T13:10:52;8.80;;;2.60;;
54125;SDS011;40360;52.992;6.796;2023-06-04T13:13:19;5.53;;;2.42;;
54125;SDS011;40360;52.992;6.796;2023-06-04T13:15:45;5.40;;;1.98;;
54125;SDS011;40360;52.992;6.796;2023-06-04T13:18:11;5.45;;;2.22;;
54125;SDS011;40360;52.992;6.796;2023-06-04T13:20:37;5.55;;;2.58;;
54125;SDS011;40360;52.992;6.796;2023-06-04T13:23:05;6.50;;;2.65;;
54125;SDS011;40360;52.992;6.796;2023-06-04T13:25:31;12.93;;;3.00;;
54125;SDS011;40360;52.992;6.796;2023-06-04T13:28:00;3.55;;;1.75;;
54125;SDS011;40360;52.992;6.796;2023-06-04T13:30:26;3.88;;;2.40;;
54125;SDS011;40360;52.992;6.796;2023-06-04T13:32:52;4.10;;;1.90;;
54125;SDS011;40360;52.992;6.796;2023-06-04T13:35:18;4.30;;;2.08;;
54125;SDS011;40360;52.992;6.796;2023-06-04T13:37:44;5.35;;;2.00;;
54125;SDS011;40360;52.992;6.796;2023-06-04T13:40:10;5.25;;;2.50;;
54125;SDS011;40360;52.992;6.796;2023-06-04T13:42:35;8.93;;;2.72;;
54125;SDS011;40360;52.992;6.796;2023-06-04T13:45:01;9.05;;;2.45;;
54125;SDS011;40360;52.992;6.796;2023-06-04T13:47:27;6.63;;;2.10;;
54125;SDS011;40360;52.992;6.796;2023-06-04T13:49:53;3.15;;;1.83;;
54125;SDS011;40360;52.992;6.796;2023-06-04T13:52:18;4.03;;;2.00;;
54125;SDS011;40360;52.992;6.796;2023-06-04T13:54:44;3.65;;;2.28;;
54125;SDS011;40360;52.992;6.796;2023-06-04T13:57:10;6.47;;;2.20;;
54125;SDS011;40360;52.992;6.796;2023-06-04T13:59:36;4.97;;;2.08;;
54125;SDS011;40360;52.992;6.796;2023-06-04T14:02:02;6.55;;;2.40;;
54125;SDS011;40360;52.992;6.796;2023-06-04T14:04:28;8.07;;;2.47;;
54125;SDS011;40360;52.992;6.796;2023-06-04T14:06:54;6.63;;;2.50;;
54125;SDS011;40360;52.992;6.796;2023-06-04T14:09:20;6.25;;;2.58;;
54125;SDS011;40360;52.992;6.796;2023-06-04T14:11:45;4.45;;;1.98;;
54125;SDS011;40360;52.992;6.796;2023-06-04T14:14:16;6.20;;;2.05;;
54125;SDS011;40360;52.992;6.796;2023-06-04T14:16:42;5.20;;;2.65;;
54125;SDS011;40360;52.992;6.796;2023-06-04T14:19:09;5.00;;;2.08;;
54125;SDS011;40360;52.992;6.796;2023-06-04T14:21:35;7.47;;;1.92;;
54125;SDS011;40360;52.992;6.796;2023-06-04T14:24:01;4.43;;;1.98;;
54125;SDS011;40360;52.992;6.796;2023-06-04T14:26:26;5.60;;;2.38;;
54125;SDS011;40360;52.992;6.796;2023-06-04T14:28:53;9.20;;;2.05;;
54125;SDS011;40360;52.992;6.796;2023-06-04T14:31:18;7.55;;;2.30;;
54125;SDS011;40360;52.992;6.796;2023-06-04T14:33:44;6.88;;;2.53;;
54125;SDS011;40360;52.992;6.796;2023-06-04T14:36:09;9.13;;;2.15;;
54125;SDS011;40360;52.992;6.796;2023-06-04T14:38:35;8.68;;;2.40;;
54125;SDS011;40360;52.992;6.796;2023-06-04T14:41:02;4.80;;;2.13;;
54125;SDS011;40360;52.992;6.796;2023-06-04T14:43:28;4.60;;;2.10;;
54125;SDS011;40360;52.992;6.796;2023-06-04T14:45:53;5.78;;;2.75;;
54125;SDS011;40360;52.992;6.796;2023-06-04T14:48:19;6.93;;;2.08;;
54125;SDS011;40360;52.992;6.796;2023-06-04T14:50:45;4.55;;;2.20;;
54125;SDS011;40360;52.992;6.796;2023-06-04T14:53:12;4.57;;;1.98;;
54125;SDS011;40360;52.992;6.796;2023-06-04T14:55:37;4.07;;;1.92;;
54125;SDS011;40360;52.992;6.796;2023-06-04T14:58:03;4.40;;;2.33;;
54125;SDS011;40360;52.992;6.796;2023-06-04T15:00:29;2.67;;;1.95;;
54125;SDS011;40360;52.992;6.796;2023-06-04T15:02:55;5.18;;;2.08;;
54125;SDS011;40360;52.992;6.796;2023-06-04T15:05:21;5.05;;;2.38;;
54125;SDS011;40360;52.992;6.796;2023-06-04T15:07:46;3.50;;;1.90;;
54125;SDS011;40360;52.992;6.796;2023-06-04T15:10:12;3.67;;;2.17;;
54125;SDS011;40360;52.992;6.796;2023-06-04T15:12:38;7.22;;;2.38;;
54125;SDS011;40360;52.992;6.796;2023-06-04T15:15:07;4.05;;;1.83;;